createdAt,value
2023-05-22T00:00:04.756Z,57.87
2023-05-22T00:01:53.918Z,57.93
2023-05-22T00:03:40.369Z,58.09
2023-05-22T00:05:11.224Z,58.22
2023-05-22T00:06:45.901Z,58.19
2023-05-22T00:08:19.409Z,58.23
2023-05-22T00:10:04.378Z,58.35
2023-05-22T00:11:40.359Z,58.38
2023-05-22T00:13:25.855Z,58.50
2023-05-22T00:15:10.062Z,58.53
2023-05-22T00:16:45.710Z,58.57
2023-05-22T00:18:09.691Z,58.66
2023-05-22T00:19:45.188Z,58.57
2023-05-22T00:21:26.172Z,58.47
2023-05-22T00:23:02.411Z,58.50
2023-05-22T00:24:47.663Z,58.55
2023-05-22T00:26:35.160Z,58.58
2023-05-22T00:28:08.776Z,58.66
2023-05-22T00:29:42.026Z,58.92
2023-05-22T00:31:24.792Z,58.62
2023-05-22T00:32:58.547Z,58.84
2023-05-22T00:34:31.951Z,58.78
2023-05-22T00:35:54.665Z,58.75
2023-05-22T00:37:20.751Z,59.09
2023-05-22T00:38:42.588Z,59.24
2023-05-22T00:40:18.823Z,59.44
2023-05-22T00:41:42.515Z,59.42
2023-05-22T00:43:23.383Z,59.33
2023-05-22T00:45:08.376Z,59.47
2023-05-22T00:46:34.845Z,59.39
2023-05-22T00:48:08.480Z,59.65
2023-05-22T00:49:30.320Z,59.63
2023-05-22T00:51:06.209Z,59.72
2023-05-22T00:52:32.943Z,59.70
2023-05-22T00:54:14.004Z,59.46
2023-05-22T00:55:35.847Z,59.42
2023-05-22T00:57:00.749Z,59.42
2023-05-22T00:58:24.876Z,59.35
2023-05-22T00:59:59.724Z,59.37
2023-05-22T01:01:36.872Z,59.30
2023-05-22T01:03:21.930Z,59.53
2023-05-22T01:04:57.880Z,59.45
2023-05-22T01:06:39.673Z,59.56
2023-05-22T01:08:01.903Z,59.49
2023-05-22T01:09:28.818Z,59.28
2023-05-22T01:11:10.452Z,59.58
2023-05-22T01:12:44.375Z,59.63
2023-05-22T01:14:29.410Z,59.59
2023-05-22T01:16:14.802Z,59.73
2023-05-22T01:17:56.006Z,59.48
2023-05-22T01:19:42.636Z,59.52
2023-05-22T01:21:27.903Z,59.65
2023-05-22T01:23:03.384Z,59.47
2023-05-22T01:24:46.236Z,59.64
2023-05-22T01:26:31.594Z,59.35
2023-05-22T01:28:17.090Z,59.33
2023-05-22T01:29:50.627Z,59.42
2023-05-22T01:31:26.075Z,59.43
2023-05-22T01:32:59.937Z,59.49
2023-05-22T01:34:47.472Z,59.48
2023-05-22T01:36:22.543Z,59.55
2023-05-22T01:37:56.251Z,59.79
2023-05-22T01:39:30.077Z,59.65
2023-05-22T01:41:10.714Z,59.67
2023-05-22T01:42:44.275Z,59.42
2023-05-22T01:44:25.541Z,59.61
2023-05-22T01:45:50.307Z,59.44
2023-05-22T01:47:35.551Z,59.30
2023-05-22T01:49:16.500Z,59.43
2023-05-22T01:50:56.933Z,59.26
2023-05-22T01:52:55.837Z,59.31
2023-05-22T01:54:40.422Z,59.40
2023-05-22T01:56:17.028Z,59.21
2023-05-22T01:57:52.939Z,59.18
2023-05-22T01:59:26.190Z,59.37
2023-05-22T02:01:07.077Z,59.22
2023-05-22T02:02:53.421Z,59.34
2023-05-22T02:04:22.633Z,59.14
2023-05-22T02:05:56.530Z,59.33
2023-05-22T02:07:41.508Z,59.57
2023-05-22T02:09:13.053Z,59.15
2023-05-22T02:10:47.364Z,59.36
2023-05-22T02:12:32.781Z,59.55
2023-05-22T02:14:18.164Z,59.68
2023-05-22T02:15:51.588Z,59.86
2023-05-22T02:17:24.628Z,59.76
2023-05-22T02:18:46.738Z,59.68
2023-05-22T02:20:27.492Z,59.82
2023-05-22T02:22:02.108Z,60.16
2023-05-22T02:23:47.047Z,60.00
2023-05-22T02:25:21.279Z,60.07
2023-05-22T02:27:06.229Z,60.39
2023-05-22T02:28:51.271Z,60.42
2023-05-22T02:30:36.980Z,60.47
2023-05-22T02:32:20.176Z,60.65
2023-05-22T02:33:53.969Z,61.04
2023-05-22T02:35:39.572Z,61.18
2023-05-22T02:37:15.729Z,61.16
2023-05-22T02:39:10.685Z,61.18
2023-05-22T02:40:52.000Z,61.16
2023-05-22T02:42:16.574Z,61.39
2023-05-22T02:43:50.417Z,61.37
2023-05-22T02:45:23.595Z,61.15
2023-05-22T02:46:57.482Z,61.46
2023-05-22T02:48:44.849Z,61.43
2023-05-22T02:50:08.411Z,61.23
2023-05-22T02:51:41.934Z,61.10
2023-05-22T02:53:03.864Z,61.54
2023-05-22T02:54:37.495Z,61.64
2023-05-22T02:56:12.972Z,61.52
2023-05-22T02:57:46.486Z,61.69
2023-05-22T02:59:17.717Z,61.77
2023-05-22T03:00:47.082Z,61.74
2023-05-22T03:02:21.761Z,61.81
2023-05-22T03:03:50.834Z,61.87
2023-05-22T03:05:24.839Z,61.72
2023-05-22T03:06:58.223Z,61.96
2023-05-22T03:08:34.128Z,61.88
2023-05-22T03:10:08.925Z,62.24
2023-05-22T03:11:45.023Z,62.05
2023-05-22T03:13:28.953Z,62.02
2023-05-22T03:15:15.150Z,62.00
2023-05-22T03:17:00.212Z,61.83
2023-05-22T03:18:27.626Z,61.73
2023-05-22T03:20:04.910Z,61.91
2023-05-22T03:21:49.684Z,61.55
2023-05-22T03:23:33.408Z,61.42
2023-05-22T03:25:14.317Z,61.50
2023-05-22T03:27:00.238Z,61.58
2023-05-22T03:28:41.901Z,61.16
2023-05-22T03:30:22.953Z,61.13
2023-05-22T03:32:04.849Z,61.04
2023-05-22T03:33:38.329Z,60.90
2023-05-22T03:35:29.900Z,60.99
2023-05-22T03:37:22.422Z,60.93
2023-05-22T03:38:56.629Z,60.75
2023-05-22T03:40:42.261Z,60.63
2023-05-22T03:42:17.312Z,60.78
2023-05-22T03:44:02.883Z,60.54
2023-05-22T03:45:47.948Z,60.33
2023-05-22T03:47:35.482Z,60.25
2023-05-22T03:49:25.263Z,60.20
2023-05-22T03:51:14.869Z,60.43
2023-05-22T03:52:38.592Z,60.49
2023-05-22T03:54:07.458Z,60.35
2023-05-22T03:55:42.781Z,60.23
2023-05-22T03:57:25.058Z,60.13
2023-05-22T03:58:51.507Z,60.04
2023-05-22T04:00:42.406Z,59.77
2023-05-22T04:02:17.099Z,59.64
2023-05-22T04:03:58.320Z,59.79
2023-05-22T04:05:32.013Z,59.50
2023-05-22T04:06:53.926Z,59.45
2023-05-22T04:08:46.935Z,59.33
2023-05-22T04:10:22.451Z,59.43
2023-05-22T04:11:58.461Z,59.18
2023-05-22T04:13:31.918Z,59.16
2023-05-22T04:15:21.874Z,59.51
2023-05-22T04:16:57.475Z,58.92
2023-05-22T04:18:43.927Z,58.63
2023-05-22T04:20:17.970Z,58.50
2023-05-22T04:21:59.040Z,58.25
2023-05-22T04:23:52.567Z,58.37
2023-05-22T04:25:26.061Z,58.03
2023-05-22T04:27:07.047Z,57.38
2023-05-22T04:28:42.950Z,57.86
2023-05-22T04:30:32.941Z,57.35
2023-05-22T04:32:08.712Z,56.86
2023-05-22T04:33:39.931Z,57.23
2023-05-22T04:35:31.678Z,57.00
2023-05-22T04:37:13.501Z,56.46
2023-05-22T04:38:36.617Z,56.45
2023-05-22T04:40:19.067Z,56.26
2023-05-22T04:42:04.008Z,56.53
2023-05-22T04:43:50.327Z,55.99
2023-05-22T04:45:25.296Z,55.81
2023-05-22T04:46:59.769Z,55.47
2023-05-22T04:48:43.586Z,55.78
2023-05-22T04:50:24.304Z,55.65
2023-05-22T04:52:09.388Z,55.08
2023-05-22T04:53:33.542Z,54.94
2023-05-22T04:55:23.608Z,54.64
2023-05-22T04:56:53.267Z,54.64
2023-05-22T04:58:41.156Z,55.11
2023-05-22T05:00:27.643Z,55.11
2023-05-22T05:02:03.906Z,55.14
2023-05-22T05:03:40.127Z,54.40
2023-05-22T05:05:34.725Z,53.59
2023-05-22T05:07:05.030Z,53.80
2023-05-22T05:08:49.722Z,53.95
2023-05-22T05:10:23.167Z,53.89
2023-05-22T05:12:16.413Z,54.29
2023-05-22T05:14:01.997Z,53.76
2023-05-22T05:15:47.604Z,53.52
2023-05-22T05:17:29.838Z,52.78
2023-05-22T05:19:23.574Z,53.15
2023-05-22T05:20:45.740Z,53.15
2023-05-22T05:22:10.120Z,53.55
2023-05-22T05:23:43.271Z,53.96
2023-05-22T05:25:24.480Z,53.64
2023-05-22T05:27:06.055Z,53.97
2023-05-22T05:28:51.016Z,53.68
2023-05-22T05:30:31.930Z,53.43
2023-05-22T05:32:14.379Z,52.92
2023-05-22T05:33:58.019Z,53.33
2023-05-22T05:35:50.436Z,53.81
2023-05-22T05:37:26.006Z,54.08
2023-05-22T05:39:08.381Z,53.77
2023-05-22T05:40:45.421Z,53.26
2023-05-22T05:42:27.476Z,52.94
2023-05-22T05:44:04.269Z,52.78
2023-05-22T05:45:50.545Z,52.58
2023-05-22T05:47:12.080Z,52.41
2023-05-22T05:48:36.181Z,52.87
2023-05-22T05:50:21.331Z,52.90
2023-05-22T05:52:02.078Z,52.88
2023-05-22T05:53:36.963Z,53.11
2023-05-22T05:55:11.408Z,52.76
2023-05-22T05:56:57.109Z,52.93
2023-05-22T05:58:51.185Z,52.54
2023-05-22T06:00:43.923Z,52.27
2023-05-22T06:02:17.433Z,51.62
2023-05-22T06:04:06.079Z,51.34
2023-05-22T06:05:42.115Z,51.05
2023-05-22T06:07:15.628Z,51.35
2023-05-22T06:09:05.027Z,50.82
2023-05-22T06:10:27.456Z,50.42
2023-05-22T06:12:16.371Z,50.60
2023-05-22T06:14:03.162Z,50.47
2023-05-22T06:15:36.477Z,50.44
2023-05-22T06:17:30.328Z,50.12
2023-05-22T06:18:57.049Z,49.59
2023-05-22T06:20:44.838Z,48.90
2023-05-22T06:22:14.243Z,49.31
2023-05-22T06:23:59.907Z,49.12
2023-05-22T06:25:46.522Z,48.70
2023-05-22T06:27:31.438Z,48.57
2023-05-22T06:29:25.373Z,48.10
2023-05-22T06:31:10.439Z,48.79
2023-05-22T06:32:51.163Z,48.72
2023-05-22T06:34:35.978Z,48.72
2023-05-22T06:36:00.743Z,47.90
2023-05-22T06:37:43.175Z,47.70
2023-05-22T06:39:29.767Z,47.30
2023-05-22T06:41:48.086Z,46.33
2023-05-22T06:43:23.805Z,45.64
2023-05-22T06:45:04.304Z,44.41
2023-05-22T06:46:43.173Z,44.60
2023-05-22T06:48:09.549Z,45.02
2023-05-22T06:49:56.439Z,44.56
2023-05-22T06:51:32.002Z,44.77
2023-05-22T06:53:23.824Z,45.01
2023-05-22T06:55:04.228Z,44.53
2023-05-22T06:56:31.882Z,43.94
2023-05-22T06:58:08.873Z,43.24
2023-05-22T06:59:45.762Z,43.41
2023-05-22T07:01:30.188Z,42.47
2023-05-22T07:03:10.332Z,41.76
2023-05-22T07:04:46.351Z,42.22
2023-05-22T07:06:24.760Z,41.68
2023-05-22T07:08:01.051Z,41.48
2023-05-22T07:09:35.791Z,41.67
2023-05-22T07:11:10.101Z,42.03
2023-05-22T07:12:43.451Z,40.99
2023-05-22T07:14:19.130Z,40.70
2023-05-22T07:16:00.250Z,41.05
2023-05-22T07:17:24.870Z,40.22
2023-05-22T07:18:58.489Z,39.72
2023-05-22T07:20:48.701Z,40.15
2023-05-22T07:22:26.766Z,40.56
2023-05-22T07:24:11.965Z,39.89
2023-05-22T07:26:03.420Z,39.33
2023-05-22T07:27:39.692Z,39.52
2023-05-22T07:29:25.785Z,38.87
2023-05-22T07:31:12.342Z,39.38
2023-05-22T07:32:45.781Z,38.72
2023-05-22T07:34:19.476Z,38.45
2023-05-22T07:35:53.321Z,38.31
2023-05-22T07:37:28.928Z,38.62
2023-05-22T07:39:02.429Z,37.84
2023-05-22T07:40:47.383Z,38.52
2023-05-22T07:42:32.731Z,37.95
2023-05-22T07:43:59.791Z,38.64
2023-05-22T07:45:48.326Z,38.39
2023-05-22T07:47:38.732Z,38.81
2023-05-22T07:49:16.229Z,36.55
2023-05-22T07:50:51.696Z,36.01
2023-05-22T07:52:25.478Z,36.06
2023-05-22T07:53:54.490Z,37.41
2023-05-22T07:55:40.647Z,38.05
2023-05-22T07:57:33.158Z,37.33
2023-05-22T07:59:24.240Z,38.09
2023-05-22T08:01:05.839Z,36.61
2023-05-22T08:02:52.411Z,35.42
2023-05-22T08:04:37.828Z,36.40
2023-05-22T08:06:29.172Z,35.14
2023-05-22T08:08:03.731Z,34.84
2023-05-22T08:09:48.652Z,35.84
2023-05-22T08:11:40.448Z,35.79
2023-05-22T08:13:25.767Z,35.02
2023-05-22T08:15:18.115Z,34.28
2023-05-22T08:16:59.338Z,33.57
2023-05-22T08:18:40.765Z,34.57
2023-05-22T08:20:21.573Z,34.29
2023-05-22T08:21:58.041Z,34.24
2023-05-22T08:23:31.326Z,34.39
2023-05-22T08:25:05.109Z,33.89
2023-05-22T08:26:47.316Z,33.61
2023-05-22T08:28:32.256Z,33.47
2023-05-22T08:30:13.125Z,33.38
2023-05-22T08:31:58.433Z,33.51
2023-05-22T08:33:22.771Z,33.82
2023-05-22T08:34:46.862Z,33.91
2023-05-22T08:36:32.333Z,32.56
2023-05-22T08:38:05.846Z,33.46
2023-05-22T08:39:40.610Z,33.72
2023-05-22T08:41:25.136Z,33.18
2023-05-22T08:43:01.598Z,33.76
2023-05-22T08:44:27.803Z,33.27
2023-05-22T08:46:13.009Z,33.65
2023-05-22T08:47:58.388Z,33.42
2023-05-22T08:49:51.582Z,32.82
2023-05-22T08:51:45.788Z,32.66
2023-05-22T08:53:39.434Z,32.62
2023-05-22T08:55:12.605Z,32.58
2023-05-22T08:56:57.823Z,32.22
2023-05-22T08:58:31.324Z,31.59
2023-05-22T08:59:55.296Z,32.54
2023-05-22T09:01:17.101Z,32.98
2023-05-22T09:02:53.081Z,32.12
2023-05-22T09:04:36.670Z,31.65
2023-05-22T09:06:11.241Z,31.82
2023-05-22T09:07:33.018Z,31.81
2023-05-22T09:08:55.098Z,32.06
2023-05-22T09:10:36.831Z,32.05
2023-05-22T09:12:12.443Z,31.63
2023-05-22T09:13:45.900Z,32.22
2023-05-22T09:15:21.234Z,32.12
2023-05-22T09:17:02.104Z,31.40
2023-05-22T09:20:32.485Z,32.74
2023-05-22T09:22:07.835Z,32.47
2023-05-22T09:23:43.665Z,32.62
2023-05-22T09:25:07.889Z,31.70
2023-05-22T09:27:01.599Z,31.74
2023-05-22T09:28:25.397Z,31.56
2023-05-22T09:30:06.891Z,31.30
2023-05-22T09:31:42.474Z,32.05
2023-05-22T09:33:18.033Z,31.18
2023-05-22T09:34:51.850Z,30.94
2023-05-22T09:36:28.095Z,30.69
2023-05-22T09:38:11.429Z,30.41
2023-05-22T09:39:57.926Z,30.97
2023-05-22T09:41:34.190Z,31.76
2023-05-22T09:42:58.039Z,31.49
2023-05-22T09:44:20.087Z,31.66
2023-05-22T09:45:41.882Z,32.17
2023-05-22T09:47:17.856Z,32.13
2023-05-22T09:48:39.830Z,31.20
2023-05-22T09:50:14.004Z,31.02
2023-05-22T09:51:42.872Z,31.87
2023-05-22T09:53:27.925Z,30.78
2023-05-22T09:55:05.260Z,31.43
2023-05-22T09:56:38.681Z,31.43
2023-05-22T09:58:13.852Z,31.73
2023-05-22T09:59:42.914Z,31.09
2023-05-22T10:01:19.185Z,29.89
2023-05-22T10:02:55.051Z,29.85
2023-05-22T10:04:18.306Z,30.65
2023-05-22T10:05:42.409Z,31.86
2023-05-22T10:07:06.762Z,31.32
2023-05-22T10:08:28.954Z,31.56
2023-05-22T10:09:53.260Z,31.47
2023-05-22T10:11:17.182Z,31.07
2023-05-22T10:12:39.022Z,31.67
2023-05-22T10:14:08.898Z,31.21
2023-05-22T10:15:31.160Z,31.00
2023-05-22T10:17:13.109Z,31.48
2023-05-22T10:18:58.243Z,31.74
2023-05-22T10:20:39.917Z,30.82
2023-05-22T10:22:28.683Z,31.70
2023-05-22T10:23:52.942Z,31.55
2023-05-22T10:25:38.012Z,31.52
2023-05-22T10:27:19.335Z,31.89
2023-05-22T10:28:46.100Z,31.95
2023-05-22T18:54:46.260Z,47.16
2023-05-22T18:56:19.356Z,47.49
2023-05-22T18:58:04.290Z,47.70
2023-05-22T18:59:33.612Z,48.01
2023-05-22T19:01:08.328Z,48.24
2023-05-22T19:02:53.551Z,48.67
2023-05-22T19:04:38.207Z,49.03
2023-05-22T19:06:14.235Z,49.44
2023-05-22T19:07:50.135Z,49.71
2023-05-22T19:09:22.062Z,49.47
2023-05-22T19:10:55.560Z,49.61
2023-05-22T19:12:26.879Z,49.57
2023-05-22T19:14:01.691Z,49.90
2023-05-22T19:15:25.544Z,49.81
2023-05-22T19:17:01.696Z,49.75
2023-05-22T19:18:27.316Z,49.79
2023-05-22T19:20:09.966Z,49.73
2023-05-22T19:21:42.714Z,49.80
2023-05-22T19:23:06.715Z,49.98
2023-05-22T19:24:32.503Z,50.07
2023-05-22T19:26:14.002Z,50.00
2023-05-22T19:27:47.485Z,50.17
2023-05-22T19:29:34.826Z,50.21
2023-05-22T19:30:58.460Z,50.46
2023-05-22T19:32:26.259Z,50.40
2023-05-22T19:33:52.454Z,50.27
2023-05-22T19:35:14.966Z,50.49
2023-05-22T19:36:57.343Z,50.53
2023-05-22T19:38:23.376Z,50.64
2023-05-22T19:39:57.090Z,50.62
2023-05-22T19:41:22.778Z,50.75
2023-05-22T19:42:47.105Z,50.93
2023-05-22T19:44:11.279Z,51.10
2023-05-22T19:45:32.831Z,51.07
2023-05-22T19:47:01.860Z,51.22
2023-05-22T19:48:33.119Z,51.55
2023-05-22T19:50:06.741Z,51.72
2023-05-22T19:51:42.714Z,52.25
2023-05-22T19:53:07.161Z,52.65
2023-05-22T19:54:31.900Z,52.65
2023-05-22T19:56:02.118Z,52.99
2023-05-22T19:57:23.835Z,52.90
2023-05-22T19:58:45.767Z,53.44
2023-05-22T20:00:19.419Z,53.34
2023-05-22T20:01:40.915Z,53.54
2023-05-22T20:03:25.902Z,53.01
2023-05-22T20:05:20.171Z,53.28
2023-05-22T20:06:54.556Z,53.64
2023-05-22T20:08:18.078Z,53.54
2023-05-22T20:09:51.439Z,53.40
2023-05-22T20:11:26.136Z,53.60
2023-05-22T20:12:50.087Z,54.20
2023-05-22T20:14:11.862Z,54.31
2023-05-22T20:15:36.747Z,54.22
2023-05-22T20:17:22.184Z,54.65
2023-05-22T20:18:56.299Z,54.73
2023-05-22T20:20:19.489Z,54.53
2023-05-22T20:22:00.258Z,54.66
2023-05-22T20:23:24.585Z,54.67
2023-05-22T20:24:55.002Z,54.95
2023-05-22T20:26:40.119Z,54.87
2023-05-22T20:28:13.913Z,55.51
2023-05-22T20:30:07.551Z,55.39
2023-05-22T20:31:43.486Z,55.61
2023-05-22T20:33:37.310Z,55.85
2023-05-22T20:35:18.233Z,56.27
2023-05-22T20:36:42.817Z,56.32
2023-05-22T20:38:18.928Z,56.38
2023-05-22T20:39:45.040Z,56.36
2023-05-22T20:41:19.753Z,56.80
2023-05-22T20:42:44.241Z,56.86
2023-05-22T20:44:12.335Z,56.81
2023-05-22T20:45:47.995Z,56.77
2023-05-22T20:47:17.124Z,56.90
2023-05-22T20:48:50.489Z,56.53
2023-05-22T20:50:19.792Z,56.43
2023-05-22T20:51:43.699Z,56.73
2023-05-22T20:53:18.222Z,56.95
2023-05-22T20:54:39.836Z,56.98
2023-05-22T20:56:15.540Z,57.14
2023-05-22T20:57:46.292Z,57.33
2023-05-22T20:59:15.884Z,57.53
2023-05-22T21:00:42.052Z,57.43
2023-05-22T21:02:04.182Z,57.61
2023-05-22T21:03:35.541Z,57.58
2023-05-22T21:04:57.185Z,57.88
2023-05-22T21:06:33.752Z,57.58
2023-05-22T21:08:10.876Z,57.66
2023-05-22T21:09:40.148Z,57.53
2023-05-22T21:11:13.551Z,57.52
2023-05-22T21:12:46.922Z,57.42
2023-05-22T21:14:20.505Z,57.51
2023-05-22T21:15:42.616Z,57.65
2023-05-22T21:17:07.500Z,57.87
2023-05-22T21:18:29.114Z,57.94
2023-05-22T21:19:55.958Z,58.00
2023-05-22T21:21:20.010Z,58.15
2023-05-22T21:22:51.176Z,58.16
2023-05-22T21:24:20.694Z,58.38
2023-05-22T21:25:54.185Z,58.34
2023-05-22T21:27:35.775Z,58.52
2023-05-22T21:28:59.709Z,58.61
2023-05-22T21:30:29.758Z,58.57
2023-05-22T21:31:53.698Z,58.60
2023-05-22T21:33:15.876Z,58.76
2023-05-22T21:34:41.035Z,58.77
2023-05-22T21:36:07.689Z,58.94
2023-05-22T21:37:48.415Z,58.74
2023-05-22T21:39:17.901Z,58.63
2023-05-22T21:40:42.841Z,58.67
2023-05-22T21:42:19.025Z,58.73
2023-05-22T21:43:41.589Z,58.80
2023-05-22T21:45:11.296Z,58.91
2023-05-22T21:46:35.805Z,59.11
2023-05-22T21:48:09.728Z,59.16
2023-05-22T21:49:43.407Z,59.24
2023-05-22T21:51:07.914Z,59.42
2023-05-22T21:52:48.954Z,59.40
2023-05-22T21:54:11.020Z,59.62
2023-05-22T21:55:35.215Z,59.50
2023-05-22T21:56:57.366Z,59.35
2023-05-22T21:58:19.879Z,59.61
2023-05-22T21:59:53.039Z,59.53
2023-05-22T22:01:20.682Z,59.42
2023-05-22T22:03:06.995Z,59.73
2023-05-22T22:04:51.904Z,59.80
2023-05-22T22:06:13.685Z,59.79
2023-05-22T22:07:49.768Z,59.72
2023-05-22T22:09:12.196Z,59.71
2023-05-22T22:10:44.533Z,59.72
2023-05-22T22:12:06.556Z,59.80
2023-05-22T22:13:30.446Z,60.03
2023-05-22T22:14:54.735Z,59.90
2023-05-22T22:16:24.368Z,59.92
2023-05-22T22:17:47.411Z,59.94
2023-05-22T22:19:11.822Z,59.94
2023-05-22T22:20:45.119Z,59.80
2023-05-22T22:22:18.793Z,59.75
2023-05-22T22:23:40.631Z,59.62
2023-05-22T22:25:14.141Z,59.76
2023-05-22T22:26:47.952Z,59.51
2023-05-22T22:28:10.462Z,59.61
2023-05-22T22:29:46.847Z,59.48
2023-05-22T22:31:11.723Z,59.80
2023-05-22T22:32:35.963Z,59.74
2023-05-22T22:34:09.054Z,59.73
2023-05-22T22:35:54.013Z,59.98
2023-05-22T22:37:27.650Z,60.01
2023-05-22T22:38:49.456Z,60.10
2023-05-22T22:40:26.664Z,59.94
2023-05-22T22:41:51.049Z,60.18
2023-05-22T22:43:15.629Z,60.11
2023-05-22T22:44:46.700Z,60.04
2023-05-22T22:46:09.123Z,59.85
2023-05-22T22:47:31.882Z,59.79
2023-05-22T22:48:57.045Z,59.84
2023-05-22T22:50:21.625Z,59.65
2023-05-22T22:51:43.737Z,59.84
2023-05-22T22:53:21.009Z,59.77
2023-05-22T22:54:45.575Z,59.93
2023-05-22T22:56:17.935Z,59.94
2023-05-22T22:57:51.262Z,59.96
2023-05-22T22:59:24.709Z,60.06
2023-05-22T23:00:49.994Z,59.85
2023-05-22T23:02:22.404Z,60.00
2023-05-22T23:03:46.447Z,59.99
2023-05-22T23:05:27.851Z,59.86
2023-05-22T23:06:59.591Z,59.95
2023-05-22T23:08:23.947Z,59.84
2023-05-22T23:10:05.327Z,59.88
2023-05-22T23:11:39.194Z,59.73
2023-05-22T23:13:24.505Z,59.62
2023-05-22T23:14:55.755Z,59.64
2023-05-22T23:16:37.836Z,59.50
2023-05-22T23:18:23.585Z,59.59
2023-05-22T23:20:08.935Z,59.82
2023-05-22T23:21:45.396Z,59.63
2023-05-22T23:23:34.763Z,59.39
2023-05-22T23:25:20.088Z,59.27
2023-05-22T23:26:55.719Z,59.10
2023-05-22T23:28:37.750Z,59.16
2023-05-22T23:30:11.158Z,59.51
2023-05-22T23:31:56.294Z,59.51
2023-05-22T23:33:32.146Z,59.33
2023-05-22T23:35:26.270Z,59.24
2023-05-22T23:37:00.285Z,59.34
2023-05-22T23:38:35.731Z,59.60
2023-05-22T23:40:18.196Z,59.56
2023-05-22T23:41:54.157Z,59.58
2023-05-22T23:43:37.196Z,59.92
2023-05-22T23:45:06.486Z,59.91
2023-05-22T23:46:39.218Z,59.94
2023-05-22T23:48:08.031Z,59.75
2023-05-22T23:49:41.384Z,59.69
2023-05-22T23:51:05.213Z,60.00
2023-05-22T23:52:38.732Z,59.82
2023-05-22T23:54:00.494Z,59.57
2023-05-22T23:55:45.744Z,59.76
2023-05-22T23:57:23.644Z,59.66
2023-05-22T23:59:08.871Z,59.66
